createdAt,value
2017-08-23T00:00:52.430Z,2.90
2017-08-23T00:03:19.937Z,3.80
2017-08-23T00:05:47.482Z,2.93
2017-08-23T00:08:15.040Z,2.70
2017-08-23T00:10:42.590Z,3.13
2017-08-23T00:13:10.097Z,3.00
2017-08-23T00:15:37.590Z,3.03
2017-08-23T00:18:05.132Z,3.13
2017-08-23T00:20:32.651Z,4.20
2017-08-23T00:23:00.213Z,3.37
2017-08-23T00:25:27.714Z,3.27
2017-08-23T00:27:55.251Z,3.03
2017-08-23T00:30:22.786Z,3.53
2017-08-23T00:32:50.289Z,3.20
2017-08-23T00:35:17.872Z,3.70
2017-08-23T00:37:45.389Z,3.70
2017-08-23T00:40:12.971Z,3.30
2017-08-23T00:42:40.496Z,3.30
2017-08-23T00:45:08.041Z,3.20
2017-08-23T00:47:35.595Z,4.20
2017-08-23T00:50:03.540Z,3.37
2017-08-23T00:52:31.082Z,2.73
2017-08-23T00:54:58.664Z,3.70
2017-08-23T00:57:26.197Z,3.30
2017-08-23T00:59:53.712Z,3.87
2017-08-23T01:02:21.505Z,3.07
2017-08-23T01:04:49.006Z,3.37
2017-08-23T01:07:16.526Z,3.57
2017-08-23T01:09:44.084Z,4.10
2017-08-23T01:12:11.650Z,3.03
2017-08-23T01:14:39.217Z,3.43
2017-08-23T01:17:06.725Z,3.30
2017-08-23T01:19:34.240Z,3.73
2017-08-23T01:22:01.806Z,3.50
2017-08-23T01:24:29.340Z,3.30
2017-08-23T01:26:56.842Z,3.53
2017-08-23T01:29:24.381Z,4.40
2017-08-23T01:31:51.882Z,3.80
2017-08-23T01:34:19.387Z,3.60
2017-08-23T01:36:46.943Z,3.73
2017-08-23T01:39:14.436Z,3.50
2017-08-23T01:41:42.001Z,3.83
2017-08-23T01:44:09.496Z,4.00
2017-08-23T01:46:37.004Z,3.63
2017-08-23T01:49:04.551Z,3.93
2017-08-23T01:51:32.074Z,4.00
2017-08-23T01:53:59.635Z,3.53
2017-08-23T01:56:27.136Z,4.33
2017-08-23T01:58:54.691Z,3.90
2017-08-23T02:01:22.227Z,4.07
2017-08-23T02:03:49.769Z,3.60
2017-08-23T02:06:17.366Z,4.20
2017-08-23T02:08:44.904Z,4.20
2017-08-23T02:11:12.438Z,3.97
2017-08-23T02:13:39.978Z,3.67
2017-08-23T02:16:07.952Z,3.70
2017-08-23T02:18:35.452Z,3.70
2017-08-23T02:21:02.960Z,5.17
2017-08-23T02:23:30.499Z,3.80
2017-08-23T02:25:58.006Z,4.17
2017-08-23T02:28:25.610Z,4.07
2017-08-23T02:30:53.103Z,3.73
2017-08-23T02:33:20.667Z,3.83
2017-08-23T02:35:48.184Z,4.47
2017-08-23T02:38:15.684Z,3.90
2017-08-23T02:40:43.238Z,4.00
2017-08-23T02:43:10.733Z,3.50
2017-08-23T02:45:38.289Z,4.27
2017-08-23T02:48:05.817Z,4.20
2017-08-23T02:50:33.322Z,4.13
2017-08-23T02:53:00.902Z,3.83
2017-08-23T02:55:28.449Z,4.03
2017-08-23T02:57:56.849Z,4.40
2017-08-23T03:00:24.376Z,4.10
2017-08-23T03:02:51.875Z,4.47
2017-08-23T03:05:19.417Z,4.20
2017-08-23T03:07:46.912Z,4.37
2017-08-23T03:10:14.482Z,4.50
2017-08-23T03:12:41.977Z,4.10
2017-08-23T03:15:09.492Z,4.13
2017-08-23T03:17:37.048Z,4.10
2017-08-23T03:20:04.996Z,3.87
2017-08-23T03:22:32.475Z,3.30
2017-08-23T03:25:00.036Z,4.10
2017-08-23T03:27:27.568Z,4.27
2017-08-23T03:29:55.130Z,4.30
2017-08-23T03:32:22.650Z,4.40
2017-08-23T03:34:50.175Z,4.00
2017-08-23T03:37:17.731Z,4.37
2017-08-23T03:39:45.291Z,4.40
2017-08-23T03:42:12.851Z,4.50
2017-08-23T03:44:40.396Z,4.97
2017-08-23T03:47:07.952Z,5.33
2017-08-23T03:49:35.454Z,5.53
2017-08-23T03:52:02.989Z,5.60
2017-08-23T03:54:30.481Z,5.30
2017-08-23T03:56:57.985Z,5.03
2017-08-23T03:59:25.506Z,5.40
2017-08-23T04:01:53.210Z,4.63
2017-08-23T04:04:20.771Z,4.63
2017-08-23T04:06:48.263Z,5.27
2017-08-23T04:09:15.768Z,4.40
2017-08-23T04:11:43.324Z,4.40
2017-08-23T04:14:10.832Z,4.50
2017-08-23T04:16:38.375Z,5.60
2017-08-23T04:19:05.883Z,5.47
2017-08-23T04:21:33.369Z,5.57
2017-08-23T04:24:00.928Z,6.43
2017-08-23T04:26:28.462Z,6.00
2017-08-23T04:28:55.956Z,4.80
2017-08-23T04:31:23.496Z,4.87
2017-08-23T04:33:50.998Z,5.90
2017-08-23T04:36:18.528Z,4.90
2017-08-23T04:38:46.032Z,5.40
2017-08-23T04:41:13.572Z,4.97
2017-08-23T04:43:41.169Z,4.47
2017-08-23T04:46:08.684Z,5.63
2017-08-23T04:48:36.821Z,5.80
2017-08-23T04:51:04.359Z,5.20
2017-08-23T04:53:31.920Z,5.30
2017-08-23T04:55:59.422Z,5.10
2017-08-23T04:58:26.989Z,4.83
2017-08-23T05:00:54.497Z,4.67
2017-08-23T05:03:22.043Z,4.63
2017-08-23T05:05:49.545Z,4.40
2017-08-23T05:08:17.103Z,4.90
2017-08-23T05:10:45.405Z,4.40
2017-08-23T05:13:12.913Z,4.60
2017-08-23T05:15:43.131Z,4.77
2017-08-23T05:18:10.647Z,4.60
2017-08-23T05:20:38.139Z,3.70
2017-08-23T05:23:05.706Z,4.40
2017-08-23T05:25:33.213Z,4.07
2017-08-23T05:28:00.791Z,4.43
2017-08-23T05:30:28.304Z,4.37
2017-08-23T05:32:55.830Z,4.50
2017-08-23T05:35:23.625Z,4.10
2017-08-23T05:37:51.165Z,4.10
2017-08-23T05:40:18.657Z,5.03
2017-08-23T05:42:46.188Z,4.73
2017-08-23T05:45:13.769Z,4.67
2017-08-23T05:47:41.284Z,4.47
2017-08-23T05:50:08.778Z,3.73
2017-08-23T05:52:36.359Z,4.70
2017-08-23T05:55:04.122Z,4.60
2017-08-23T05:57:31.680Z,3.73
2017-08-23T05:59:59.186Z,4.40
2017-08-23T06:02:26.823Z,4.80
2017-08-23T06:04:54.358Z,4.00
2017-08-23T06:07:21.859Z,4.30
2017-08-23T06:09:49.423Z,3.90
2017-08-23T06:12:16.981Z,4.10
2017-08-23T06:14:44.507Z,4.07
2017-08-23T06:17:12.107Z,4.03
2017-08-23T06:19:39.598Z,3.70
2017-08-23T06:22:07.073Z,4.40
2017-08-23T06:24:34.656Z,3.67
2017-08-23T06:27:02.205Z,3.60
2017-08-23T06:29:29.766Z,4.30
2017-08-23T06:31:57.286Z,4.10
2017-08-23T06:34:24.785Z,4.33
2017-08-23T06:36:52.344Z,3.87
2017-08-23T06:39:19.867Z,4.07
2017-08-23T06:41:47.436Z,3.93
2017-08-23T06:44:14.951Z,4.00
2017-08-23T06:46:42.481Z,4.00
2017-08-23T06:49:09.981Z,4.70
2017-08-23T06:51:37.931Z,3.30
2017-08-23T06:54:05.437Z,3.83
2017-08-23T06:56:32.952Z,3.43
2017-08-23T06:59:00.504Z,3.60
2017-08-23T07:01:28.018Z,3.40
2017-08-23T07:03:55.542Z,4.23
2017-08-23T07:06:23.115Z,3.70
2017-08-23T07:08:50.606Z,3.63
2017-08-23T07:11:18.186Z,3.10
2017-08-23T07:13:45.697Z,3.10
2017-08-23T07:16:13.248Z,3.27
2017-08-23T07:18:40.774Z,3.23
2017-08-23T07:21:08.273Z,2.70
2017-08-23T07:23:35.825Z,2.87
2017-08-23T07:26:03.350Z,3.23
2017-08-23T07:28:30.874Z,2.97
2017-08-23T07:30:59.231Z,2.90
2017-08-23T07:33:26.785Z,3.00
2017-08-23T07:35:54.380Z,2.60
2017-08-23T07:38:21.893Z,2.63
2017-08-23T07:40:49.526Z,3.07
2017-08-23T07:43:17.033Z,2.53
2017-08-23T07:45:44.572Z,3.20
2017-08-23T07:48:12.219Z,2.83
2017-08-23T07:50:39.735Z,2.27
2017-08-23T07:53:07.278Z,3.10
2017-08-23T07:55:34.786Z,2.20
2017-08-23T07:58:02.331Z,2.00
2017-08-23T08:00:29.971Z,2.00
2017-08-23T08:02:57.530Z,2.10
2017-08-23T08:05:25.061Z,2.10
2017-08-23T08:07:52.714Z,1.80
2017-08-23T08:10:20.277Z,2.07
2017-08-23T08:12:47.812Z,2.40
2017-08-23T08:15:15.393Z,1.80
2017-08-23T08:17:42.956Z,1.87
2017-08-23T08:20:10.462Z,1.90
2017-08-23T08:22:38.008Z,2.20
2017-08-23T08:25:06.131Z,1.40
2017-08-23T08:27:33.625Z,2.17
2017-08-23T08:30:01.160Z,2.27
2017-08-23T08:32:28.700Z,1.57
2017-08-23T08:34:56.858Z,1.90
2017-08-23T08:37:24.394Z,2.00
2017-08-23T08:39:51.890Z,1.60
2017-08-23T08:42:19.655Z,1.63
2017-08-23T08:44:47.260Z,1.80
2017-08-23T08:47:14.769Z,2.00
2017-08-23T08:49:42.315Z,1.97
2017-08-23T08:52:09.901Z,1.90
2017-08-23T08:54:37.467Z,2.33
2017-08-23T08:57:05.800Z,1.80
2017-08-23T08:59:33.348Z,2.43
2017-08-23T09:02:00.847Z,2.03
2017-08-23T09:04:28.384Z,1.90
2017-08-23T09:06:55.973Z,2.50
2017-08-23T09:09:23.470Z,2.10
2017-08-23T09:11:51.024Z,1.90
2017-08-23T09:14:18.516Z,2.20
2017-08-23T09:16:46.018Z,2.60
2017-08-23T09:19:13.573Z,2.30
2017-08-23T09:21:41.068Z,1.80
2017-08-23T09:24:08.860Z,2.00
2017-08-23T09:26:36.396Z,2.00
2017-08-23T09:29:03.976Z,2.00
2017-08-23T09:31:31.491Z,1.70
2017-08-23T09:33:58.987Z,2.00
2017-08-23T09:36:26.533Z,2.47
2017-08-23T09:38:54.030Z,2.33
2017-08-23T09:41:21.586Z,2.53
2017-08-23T09:43:49.108Z,1.90
2017-08-23T09:46:16.664Z,2.07
2017-08-23T09:48:44.168Z,2.30
2017-08-23T09:51:11.675Z,2.10
2017-08-23T09:53:39.225Z,1.73
2017-08-23T09:56:06.733Z,2.37
2017-08-23T09:58:34.274Z,2.40
2017-08-23T10:01:02.630Z,2.50
2017-08-23T10:03:30.173Z,2.37
2017-08-23T10:05:57.671Z,2.37
2017-08-23T10:08:25.241Z,1.63
2017-08-23T10:10:52.743Z,3.10
2017-08-23T10:13:20.286Z,2.00
2017-08-23T10:15:48.917Z,2.47
2017-08-23T10:18:16.512Z,2.23
2017-08-23T10:20:44.027Z,2.47
2017-08-23T10:23:11.585Z,2.50
2017-08-23T10:25:39.147Z,2.83
2017-08-23T10:28:06.694Z,2.50
2017-08-23T10:30:34.200Z,2.30
2017-08-23T10:33:01.738Z,2.73
2017-08-23T10:35:29.388Z,2.87
2017-08-23T10:37:56.919Z,2.97
2017-08-23T10:40:24.516Z,2.50
2017-08-23T10:42:52.097Z,2.80
2017-08-23T10:45:19.649Z,2.40
2017-08-23T10:47:47.208Z,2.27
2017-08-23T10:50:14.712Z,2.60
2017-08-23T10:52:42.260Z,2.50
2017-08-23T10:55:09.776Z,2.00
2017-08-23T10:57:37.336Z,2.50
2017-08-23T11:00:05.293Z,2.50
2017-08-23T11:02:32.842Z,3.10
2017-08-23T11:05:00.391Z,2.57
2017-08-23T11:07:28.388Z,3.13
2017-08-23T11:09:55.969Z,3.63
2017-08-23T11:12:23.505Z,2.40
2017-08-23T11:14:51.052Z,3.17
2017-08-23T11:17:18.546Z,2.60
2017-08-23T11:19:46.048Z,2.80
2017-08-23T11:22:28.564Z,3.10
2017-08-23T11:27:36.415Z,2.63
2017-08-23T11:30:04.257Z,2.80
2017-08-23T11:32:31.828Z,2.87
2017-08-23T11:34:59.349Z,2.60
2017-08-23T11:37:26.884Z,2.60
2017-08-23T11:39:54.471Z,3.37
2017-08-23T11:42:21.960Z,2.80
2017-08-23T11:44:49.471Z,2.83
2017-08-23T11:47:17.018Z,2.93
2017-08-23T11:49:45.266Z,2.77
2017-08-23T11:52:12.936Z,3.00
2017-08-23T11:54:40.419Z,3.20
2017-08-23T11:57:09.143Z,2.90
2017-08-23T11:59:36.626Z,3.33
2017-08-23T12:02:04.159Z,3.60
2017-08-23T12:04:31.711Z,3.37
2017-08-23T12:06:59.246Z,3.23
2017-08-23T12:09:26.801Z,2.80
2017-08-23T12:11:54.304Z,3.00
2017-08-23T12:14:21.831Z,2.60
2017-08-23T12:16:49.355Z,2.60
2017-08-23T12:19:16.847Z,2.73
2017-08-23T12:21:44.403Z,3.00
2017-08-23T12:24:11.939Z,3.50
2017-08-23T12:26:39.451Z,3.10
2017-08-23T12:29:07.022Z,3.47
2017-08-23T12:31:36.368Z,3.23
2017-08-23T12:34:03.893Z,3.00
2017-08-23T12:36:31.510Z,3.03
2017-08-23T12:38:59.033Z,3.50
2017-08-23T12:41:26.555Z,3.10
2017-08-23T12:43:54.099Z,2.73
2017-08-23T12:46:21.605Z,2.70
2017-08-23T12:48:49.181Z,3.07
2017-08-23T12:51:16.854Z,2.83
2017-08-23T12:53:44.798Z,2.60
2017-08-23T12:56:12.631Z,3.03
2017-08-23T12:58:40.179Z,3.70
2017-08-23T13:01:07.767Z,3.47
2017-08-23T13:03:37.045Z,3.37
2017-08-23T13:06:04.582Z,3.33
2017-08-23T13:08:34.752Z,3.20
2017-08-23T13:11:02.412Z,3.17
2017-08-23T13:13:29.966Z,2.50
2017-08-23T13:15:57.504Z,2.90
2017-08-23T13:18:25.096Z,5.20
2017-08-23T13:20:52.783Z,3.80
2017-08-23T13:23:20.373Z,2.73
2017-08-23T13:25:48.782Z,2.20
2017-08-23T13:28:16.731Z,3.10
2017-08-23T13:30:44.300Z,3.50
2017-08-23T13:33:11.871Z,2.43
2017-08-23T13:35:41.880Z,4.60
2017-08-23T13:38:09.535Z,2.67
2017-08-23T13:40:37.124Z,2.57
2017-08-23T13:43:04.698Z,3.20
2017-08-23T13:45:33.597Z,2.50
2017-08-23T13:48:05.769Z,3.20
2017-08-23T13:50:34.350Z,3.50
2017-08-23T13:53:02.094Z,2.37
2017-08-23T13:55:34.553Z,3.20
2017-08-23T13:58:05.459Z,2.70
2017-08-23T14:00:37.029Z,2.40
2017-08-23T14:03:05.837Z,3.63
2017-08-23T14:05:34.529Z,2.90
2017-08-23T14:08:04.689Z,2.60
2017-08-23T14:10:32.461Z,2.67
2017-08-23T14:13:00.144Z,3.00
2017-08-23T14:15:28.629Z,2.73
2017-08-23T14:17:56.877Z,3.10
2017-08-23T14:20:25.607Z,2.73
2017-08-23T14:22:53.160Z,2.67
2017-08-23T14:25:21.727Z,2.57
2017-08-23T14:27:49.256Z,2.20
2017-08-23T14:30:16.806Z,2.50
2017-08-23T14:32:44.477Z,2.60
2017-08-23T14:35:12.544Z,2.80
2017-08-23T14:37:42.662Z,2.80
2017-08-23T14:40:10.963Z,2.63
2017-08-23T14:42:39.639Z,2.33
2017-08-23T14:45:07.167Z,2.60
2017-08-23T14:47:34.801Z,2.47
2017-08-23T14:50:02.309Z,2.77
2017-08-23T14:52:30.054Z,2.50
2017-08-23T14:54:57.579Z,2.73
2017-08-23T14:57:25.109Z,2.83
2017-08-23T14:59:52.660Z,2.90
2017-08-23T15:02:20.158Z,2.53
2017-08-23T15:04:47.700Z,2.67
2017-08-23T15:07:15.227Z,2.87
2017-08-23T15:09:42.809Z,2.90
2017-08-23T15:12:10.339Z,3.03
2017-08-23T15:14:37.914Z,2.63
2017-08-23T15:17:05.568Z,2.37
2017-08-23T15:19:33.074Z,2.80
2017-08-23T15:22:00.710Z,2.90
2017-08-23T15:24:28.240Z,2.40
2017-08-23T15:26:55.793Z,2.50
2017-08-23T15:29:23.342Z,2.43
2017-08-23T15:31:50.858Z,2.87
2017-08-23T15:34:18.397Z,3.20
2017-08-23T15:36:46.114Z,2.73
2017-08-23T15:39:13.705Z,2.87
2017-08-23T15:41:41.283Z,3.40
2017-08-23T15:44:08.912Z,3.50
2017-08-23T15:46:36.431Z,2.97
2017-08-23T15:49:04.098Z,2.63
2017-08-23T15:51:31.716Z,2.70
2017-08-23T15:53:59.268Z,2.50
2017-08-23T15:56:26.819Z,3.03
2017-08-23T15:58:54.931Z,2.73
2017-08-23T16:01:22.454Z,2.90
2017-08-23T16:03:50.021Z,2.17
2017-08-23T16:06:18.350Z,2.50
2017-08-23T16:08:45.939Z,2.90
2017-08-23T16:11:13.515Z,4.17
2017-08-23T16:13:41.108Z,3.40
2017-08-23T16:16:08.648Z,3.50
2017-08-23T16:18:36.252Z,4.07
2017-08-23T16:21:03.811Z,3.40
2017-08-23T16:23:32.219Z,4.43
2017-08-23T16:25:59.767Z,5.67
2017-08-23T16:28:27.326Z,3.40
2017-08-23T16:30:54.840Z,3.50
2017-08-23T16:33:22.443Z,3.20
2017-08-23T16:35:50.089Z,4.17
2017-08-23T16:38:17.673Z,3.90
2017-08-23T16:40:45.210Z,2.90
2017-08-23T16:43:12.752Z,3.27
2017-08-23T16:45:40.309Z,3.40
2017-08-23T16:48:07.898Z,4.40
2017-08-23T16:50:35.468Z,3.23
2017-08-23T16:53:03.041Z,2.60
2017-08-23T16:55:30.606Z,3.10
2017-08-23T16:57:59.079Z,3.07
2017-08-23T17:00:27.255Z,3.37
2017-08-23T17:02:54.840Z,3.70
2017-08-23T17:05:22.371Z,4.13
2017-08-23T17:07:49.959Z,3.30
2017-08-23T17:10:17.584Z,4.73
2017-08-23T17:12:45.106Z,4.13
2017-08-23T17:15:12.612Z,4.27
2017-08-23T17:17:40.185Z,4.03
2017-08-23T17:20:07.716Z,3.40
2017-08-23T17:22:35.440Z,4.07
2017-08-23T17:25:03.492Z,5.07
2017-08-23T17:27:31.086Z,3.77
2017-08-23T17:29:58.625Z,4.47
2017-08-23T17:32:26.285Z,5.40
2017-08-23T17:34:53.868Z,5.00
2017-08-23T17:37:21.420Z,4.60
2017-08-23T17:39:49.009Z,4.50
2017-08-23T17:42:16.551Z,4.83
2017-08-23T17:44:44.136Z,4.93
2017-08-23T17:47:11.734Z,4.37
2017-08-23T17:49:40.458Z,4.80
2017-08-23T17:52:07.962Z,4.47
2017-08-23T17:54:35.609Z,6.23
2017-08-23T17:57:03.219Z,4.87
2017-08-23T17:59:30.786Z,6.57
2017-08-23T18:01:58.446Z,5.80
2017-08-23T18:04:26.069Z,5.60
2017-08-23T18:06:53.631Z,6.40
2017-08-23T18:09:21.210Z,9.00
2017-08-23T18:11:48.742Z,8.00
2017-08-23T18:14:16.879Z,6.97
2017-08-23T18:16:44.434Z,7.10
2017-08-23T18:19:12.822Z,6.23
2017-08-23T18:21:40.382Z,6.03
2017-08-23T18:24:07.925Z,6.43
2017-08-23T18:26:35.499Z,6.13
2017-08-23T18:29:03.118Z,4.83
2017-08-23T18:31:30.743Z,6.27
2017-08-23T18:33:58.327Z,7.50
2017-08-23T18:36:25.949Z,7.83
2017-08-23T18:38:54.447Z,6.57
2017-08-23T18:41:22.118Z,6.10
2017-08-23T18:43:50.352Z,6.20
2017-08-23T18:46:17.945Z,5.63
2017-08-23T18:48:45.549Z,6.13
2017-08-23T18:51:13.216Z,6.20
2017-08-23T18:53:40.769Z,6.40
2017-08-23T18:56:08.630Z,6.23
2017-08-23T18:58:36.197Z,7.00
2017-08-23T19:01:03.745Z,6.83
2017-08-23T19:03:31.294Z,7.97
2017-08-23T19:05:58.861Z,6.50
2017-08-23T19:08:26.404Z,6.63
2017-08-23T19:10:53.959Z,6.60
2017-08-23T19:13:21.515Z,7.23
2017-08-23T19:15:49.021Z,6.37
2017-08-23T19:18:16.657Z,7.60
2017-08-23T19:20:44.276Z,7.03
2017-08-23T19:23:11.865Z,6.17
2017-08-23T19:25:39.845Z,7.30
2017-08-23T19:28:07.371Z,7.80
2017-08-23T19:30:34.970Z,8.13
2017-08-23T19:33:02.534Z,7.00
2017-08-23T19:35:30.170Z,7.90
2017-08-23T19:37:57.675Z,7.63
2017-08-23T19:40:25.300Z,7.57
2017-08-23T19:42:52.856Z,7.00
2017-08-23T19:45:20.409Z,5.90
2017-08-23T19:47:47.981Z,6.63
2017-08-23T19:50:15.711Z,5.60
2017-08-23T19:52:43.244Z,5.90
2017-08-23T19:55:11.130Z,6.20
2017-08-23T19:57:38.675Z,6.47
2017-08-23T20:00:06.498Z,6.40
2017-08-23T20:02:34.932Z,6.40
2017-08-23T20:05:03.729Z,6.90
2017-08-23T20:07:31.335Z,7.20
2017-08-23T20:09:58.864Z,7.40
2017-08-23T20:12:26.410Z,8.53
2017-08-23T20:14:53.940Z,7.93
2017-08-23T20:17:21.457Z,7.83
2017-08-23T20:19:49.085Z,7.70
2017-08-23T20:22:17.669Z,7.87
2017-08-23T20:24:45.229Z,7.70
2017-08-23T20:27:12.844Z,8.10
2017-08-23T20:29:40.412Z,7.43
2017-08-23T20:32:08.686Z,8.57
2017-08-23T20:34:36.267Z,5.63
2017-08-23T20:37:03.803Z,6.40
2017-08-23T20:39:31.359Z,7.10
2017-08-23T20:41:59.434Z,7.40
2017-08-23T20:44:27.003Z,7.50
2017-08-23T20:46:54.584Z,6.80
2017-08-23T20:49:22.127Z,7.20
2017-08-23T20:51:49.706Z,6.50
2017-08-23T20:54:17.230Z,7.30
2017-08-23T20:56:44.800Z,7.40
2017-08-23T20:59:12.542Z,6.50
2017-08-23T21:01:40.116Z,6.33
2017-08-23T21:04:07.667Z,6.83
2017-08-23T21:06:35.244Z,7.07
2017-08-23T21:09:02.860Z,7.23
2017-08-23T21:11:30.538Z,8.13
2017-08-23T21:14:00.311Z,8.40
2017-08-23T21:16:27.824Z,8.10
2017-08-23T21:18:55.446Z,8.07
2017-08-23T21:21:22.978Z,7.33
2017-08-23T21:23:50.520Z,7.37
2017-08-23T21:26:18.103Z,7.73
2017-08-23T21:28:45.661Z,7.97
2017-08-23T21:31:13.289Z,8.67
2017-08-23T21:33:40.824Z,7.70
2017-08-23T21:36:08.353Z,7.10
2017-08-23T21:38:35.956Z,7.40
2017-08-23T21:41:03.513Z,7.17
2017-08-23T21:43:31.135Z,7.43
2017-08-23T21:45:58.740Z,7.03
2017-08-23T21:48:26.292Z,8.50
2017-08-23T21:50:53.846Z,7.30
2017-08-23T21:53:21.367Z,7.20
2017-08-23T21:55:49.769Z,7.10
2017-08-23T21:58:17.726Z,7.27
2017-08-23T22:00:45.297Z,7.33
2017-08-23T22:03:12.802Z,6.30
2017-08-23T22:05:41.238Z,6.60
2017-08-23T22:08:08.849Z,6.70
2017-08-23T22:10:36.372Z,6.30
2017-08-23T22:13:03.975Z,5.53
2017-08-23T22:15:31.487Z,5.80
2017-08-23T22:17:59.003Z,6.63
2017-08-23T22:20:26.629Z,6.07
2017-08-23T22:22:54.289Z,6.37
2017-08-23T22:25:21.809Z,6.30
2017-08-23T22:27:49.322Z,7.33
2017-08-23T22:30:17.249Z,6.50
2017-08-23T22:32:44.765Z,7.50
2017-08-23T22:35:12.281Z,6.27
2017-08-23T22:37:39.832Z,6.10
2017-08-23T22:40:08.490Z,6.93
2017-08-23T22:42:36.011Z,7.27
2017-08-23T22:45:04.487Z,6.30
2017-08-23T22:47:32.910Z,6.70
2017-08-23T22:50:01.553Z,6.90
2017-08-23T22:52:29.137Z,6.50
2017-08-23T22:54:56.739Z,6.73
2017-08-23T22:57:25.220Z,7.30
2017-08-23T22:59:52.758Z,6.60
2017-08-23T23:02:21.196Z,6.90
2017-08-23T23:04:48.895Z,7.13
2017-08-23T23:07:16.477Z,7.60
2017-08-23T23:09:44.078Z,6.67
2017-08-23T23:12:11.615Z,7.10
2017-08-23T23:14:39.162Z,6.53
2017-08-23T23:17:06.695Z,5.83
2017-08-23T23:19:34.272Z,5.97
2017-08-23T23:22:02.668Z,6.53
2017-08-23T23:24:30.224Z,7.20
2017-08-23T23:26:58.435Z,6.30
2017-08-23T23:29:25.956Z,5.33
2017-08-23T23:31:53.510Z,6.40
2017-08-23T23:34:21.041Z,5.43
2017-08-23T23:36:48.646Z,5.73
2017-08-23T23:39:16.163Z,5.90
2017-08-23T23:41:43.660Z,5.60
2017-08-23T23:44:11.187Z,6.77
2017-08-23T23:46:38.692Z,5.73
2017-08-23T23:49:06.241Z,5.70
2017-08-23T23:51:33.795Z,5.40
2017-08-23T23:54:01.322Z,5.97
2017-08-23T23:56:28.849Z,5.10
2017-08-23T23:58:56.400Z,5.60
